Terminal Aerodrome Forecast
Issued by NWS

Home | Current Version | Previous Version | Text Only | Print | Product List | Glossary On
Versions: 1 2 3 4 5 6 7 8 9 10 11 12 13 14 15 16 17 18 19 20 21 22 23 24 25 26 27 28 29 30 31 32 33 34 35 36 37 38 39 40 41 42 43 44 45 46 47
000
FTAK31 PANC 251151
TAFADL
TAF
PADL 251151Z 2512/2612 VRB03KT 1/2SM FZFG OVC003
      TEMPO 2512/2514 1SM BR VV002
     FM252100 20015G20KT 5SM BR SCT003 BKN020 OVC080 WS020/24035KT
     FM260600 21012KT 4SM -SHSN OVC005 WS020/25040KT=

USA.gov is the U.S. government's official web portal to all federal, state and local government web resources and services.